Time;durP1;ratioP1;P1;durP2;ratioP2;P2;SDS_P1;SDS_P2;PMS_P1;PMS_P2;Temp;Humidity;BMP_temperature;BMP_pressure;BME280_temperature;BME280_humidity;BME280_pressure;Samples;Min_cycle;Max_cycle;Signal;HPM_P1;HPM_P2
2022/10/12 00:01:34;;;;;;;9.52;5.35;;;10.10;99.90;;;;;;5029913;28;20166;-78
2022/10/12 00:04:00;;;;;;;7.28;4.00;;;10.10;99.90;;;;;;5029612;28;20213;-78
2022/10/12 00:06:26;;;;;;;7.70;4.63;;;10.10;99.90;;;;;;5029857;28;20185;-78
2022/10/12 00:08:53;;;;;;;7.20;5.13;;;10.10;99.90;;;;;;5029849;28;20166;-77
2022/10/12 00:11:25;;;;;;;9.13;4.30;;;10.10;99.90;;;;;;5029694;28;20170;-77
2022/10/12 00:13:51;;;;;;;5.70;4.53;;;10.10;99.90;;;;;;5030722;28;20190;-78
2022/10/12 00:16:19;;;;;;;9.80;4.50;;;10.10;99.90;;;;;;5031053;28;20174;-77
2022/10/12 00:18:50;;;;;;;6.95;4.32;;;10.10;99.90;;;;;;5031569;28;20162;-77
2022/10/12 00:21:16;;;;;;;10.43;4.30;;;10.10;99.90;;;;;;5034695;28;20173;-77
2022/10/12 00:23:43;;;;;;;10.80;4.80;;;10.10;99.90;;;;;;5033943;28;20182;-77
2022/10/12 00:26:18;;;;;;;6.60;4.35;;;10.10;99.90;;;;;;5043027;28;20169;-77
2022/10/12 00:28:45;;;;;;;7.63;4.13;;;10.10;99.90;;;;;;5053261;28;20234;-77
2022/10/12 00:31:19;;;;;;;5.00;3.90;;;10.10;99.90;;;;;;5054419;28;20169;-77
2022/10/12 00:33:46;;;;;;;10.32;4.47;;;10.00;99.90;;;;;;5054190;28;20196;-78
2022/10/12 00:36:15;;;;;;;6.13;4.30;;;10.00;99.90;;;;;;5054453;28;20173;-78
2022/10/12 00:38:41;;;;;;;8.25;4.78;;;10.00;99.90;;;;;;5054464;28;20187;-77
2022/10/12 00:41:07;;;;;;;5.70;3.65;;;10.00;99.90;;;;;;5054187;28;20184;-77
2022/10/12 00:43:37;;;;;;;5.30;3.93;;;10.00;99.90;;;;;;5053997;28;20201;-77
2022/10/12 00:46:32;;;;;;;8.90;4.40;;;10.00;99.90;;;;;;5053012;28;20564;-77
2022/10/12 00:49:22;;;;;;;6.15;3.80;;;9.90;99.90;;;;;;5054110;28;20172;-77
2022/10/12 00:52:10;;;;;;;8.27;4.05;;;10.00;99.90;;;;;;5054025;28;20280;-77
2022/10/12 00:54:43;;;;;;;7.50;3.00;;;9.90;99.90;;;;;;5053806;28;20231;-77
2022/10/12 00:57:11;;;;;;;11.35;4.57;;;9.90;99.90;;;;;;5054043;28;20207;-77
2022/10/12 00:59:44;;;;;;;5.85;3.33;;;9.90;99.90;;;;;;5053998;28;20173;-77
2022/10/12 01:02:12;;;;;;;6.20;3.70;;;9.90;99.90;;;;;;5053932;28;20176;-77
2022/10/12 01:04:38;;;;;;;5.20;3.90;;;9.90;99.90;;;;;;5053377;28;20212;-77
2022/10/12 01:07:04;;;;;;;4.55;3.50;;;9.90;99.90;;;;;;5052608;28;20173;-78
2022/10/12 01:09:30;;;;;;;10.33;3.37;;;9.80;99.90;;;;;;5052619;28;20522;-77
2022/10/12 01:11:57;;;;;;;11.38;4.40;;;9.80;99.90;;;;;;5052515;28;20564;-78
2022/10/12 01:14:23;;;;;;;6.50;4.30;;;9.80;99.90;;;;;;5053420;28;20699;-77
2022/10/12 01:17:01;;;;;;;7.27;3.73;;;9.80;99.90;;;;;;5053548;28;20188;-77
2022/10/12 01:19:52;;;;;;;7.47;4.28;;;9.80;99.90;;;;;;5038858;28;20585;-76
2022/10/12 01:22:20;;;;;;;7.30;2.90;;;9.80;99.90;;;;;;5022706;28;20181;-75
2022/10/12 01:24:53;;;;;;;4.55;3.20;;;9.80;99.90;;;;;;5033250;28;20196;-75
2022/10/12 01:27:37;;;;;;;7.38;3.95;;;9.70;99.90;;;;;;5027794;28;20642;-76
2022/10/12 01:30:09;;;;;;;6.20;4.00;;;9.70;99.90;;;;;;5018738;28;20177;-76
2022/10/12 01:32:50;;;;;;;4.18;3.38;;;9.70;99.90;;;;;;5031937;28;20205;-75
2022/10/12 01:35:41;;;;;;;9.88;3.75;;;9.70;99.90;;;;;;5010389;28;20194;-75
2022/10/12 01:38:25;;;;;;;5.32;3.58;;;9.60;99.90;;;;;;5033208;28;20198;-75
2022/10/12 01:41:00;;;;;;;4.82;3.72;;;9.70;99.90;;;;;;5031820;28;20162;-75
2022/10/12 01:43:41;;;;;;;7.75;3.13;;;9.70;99.90;;;;;;5027842;28;20240;-76
2022/10/12 01:46:19;;;;;;;7.30;4.25;;;9.60;99.90;;;;;;5026961;28;20165;-76
2022/10/12 01:48:48;;;;;;;5.85;3.13;;;9.50;99.90;;;;;;5033025;28;20248;-76
2022/10/12 01:51:37;;;;;;;5.90;3.40;;;9.50;99.90;;;;;;5026442;28;20166;-76
2022/10/12 01:54:27;;;;;;;6.65;3.67;;;9.40;99.90;;;;;;4995341;28;20197;-76
2022/10/12 01:57:15;;;;;;;4.22;3.28;;;9.40;99.90;;;;;;5032954;28;20220;-76
2022/10/12 02:00:03;;;;;;;7.68;3.50;;;9.30;99.90;;;;;;5032232;28;20181;-75
2022/10/12 02:02:36;;;;;;;9.88;3.78;;;9.30;99.90;;;;;;5032767;28;20166;-75
2022/10/12 02:05:23;;;;;;;6.13;4.25;;;9.20;99.90;;;;;;5033820;28;20205;-75
2022/10/12 02:08:08;;;;;;;6.40;3.97;;;9.30;99.90;;;;;;5015546;28;20594;-76
2022/10/12 02:10:43;;;;;;;6.65;2.70;;;9.20;99.90;;;;;;5032709;28;20174;-76
2022/10/12 02:13:13;;;;;;;7.90;3.75;;;9.20;99.90;;;;;;5025476;28;20181;-76
2022/10/12 02:15:41;;;;;;;5.82;3.42;;;9.10;99.90;;;;;;5032660;28;20193;-76
2022/10/12 02:18:11;;;;;;;9.32;3.85;;;9.10;99.90;;;;;;5025083;28;20612;-76
2022/10/12 02:20:38;;;;;;;5.35;3.17;;;9.10;99.90;;;;;;5032711;28;20253;-77
2022/10/12 02:23:06;;;;;;;5.70;2.90;;;9.10;99.90;;;;;;5032636;28;20755;-76
2022/10/12 02:25:33;;;;;;;6.78;2.72;;;9.10;99.90;;;;;;5032322;28;20190;-76
2022/10/12 02:28:09;;;;;;;5.97;3.88;;;9.10;99.90;;;;;;5032427;28;20166;-76
2022/10/12 02:30:51;;;;;;;10.38;3.58;;;9.00;99.90;;;;;;5032523;28;20177;-76
2022/10/12 02:33:45;;;;;;;7.82;3.28;;;9.10;99.90;;;;;;5032492;28;20535;-76
2022/10/12 02:36:39;;;;;;;7.13;3.20;;;9.00;99.90;;;;;;5032470;28;20229;-77
2022/10/12 02:39:18;;;;;;;6.40;2.78;;;9.00;99.90;;;;;;5024550;28;20174;-77
2022/10/12 02:41:48;;;;;;;8.48;4.60;;;9.00;99.90;;;;;;5031640;28;20170;-77
2022/10/12 02:44:20;;;;;;;6.50;3.92;;;8.90;99.90;;;;;;5025393;28;20193;-77
2022/10/12 02:46:48;;;;;;;7.10;4.18;;;8.90;99.90;;;;;;5030832;28;20204;-77
2022/10/12 02:49:14;;;;;;;6.15;3.25;;;8.90;99.90;;;;;;5035186;28;20711;-76
2022/10/12 02:51:42;;;;;;;5.00;2.72;;;8.80;99.90;;;;;;5036902;28;20169;-77
2022/10/12 02:54:08;;;;;;;6.55;3.05;;;8.80;99.90;;;;;;5031217;28;20193;-77
2022/10/12 02:56:40;;;;;;;4.90;3.25;;;8.80;99.90;;;;;;5037338;28;22207;-77
2022/10/12 02:59:06;;;;;;;8.20;3.15;;;8.80;99.90;;;;;;5029658;28;20170;-76
2022/10/12 03:01:32;;;;;;;4.30;2.53;;;8.80;99.90;;;;;;5034316;28;20763;-76
2022/10/12 03:03:58;;;;;;;6.47;3.03;;;8.70;99.90;;;;;;5032824;28;20228;-76
2022/10/12 03:06:23;;;;;;;5.87;2.93;;;8.70;99.90;;;;;;5027187;28;20182;-77
2022/10/12 03:08:49;;;;;;;5.43;2.53;;;8.70;99.90;;;;;;5014495;28;20181;-76
2022/10/12 03:11:15;;;;;;;7.13;2.97;;;8.70;99.90;;;;;;5031803;28;20162;-76
2022/10/12 03:13:41;;;;;;;5.90;2.80;;;8.70;99.90;;;;;;5031353;28;20280;-76
2022/10/12 03:16:08;;;;;;;10.80;4.40;;;8.70;99.90;;;;;;5031809;28;20166;-75
2022/10/12 03:18:35;;;;;;;6.75;2.50;;;8.70;99.90;;;;;;5031750;28;20256;-76
2022/10/12 03:21:01;;;;;;;5.50;3.17;;;8.60;99.90;;;;;;5031711;28;20180;-77
2022/10/12 03:23:27;;;;;;;7.55;3.97;;;8.60;99.90;;;;;;5031407;28;20256;-77
2022/10/12 03:25:53;;;;;;;7.67;3.43;;;8.60;99.90;;;;;;5022376;28;20249;-76
2022/10/12 03:28:18;;;;;;;5.57;3.10;;;8.60;99.90;;;;;;5031966;28;20564;-76
2022/10/12 03:30:44;;;;;;;5.30;3.27;;;8.60;99.90;;;;;;5030355;28;20626;-77
2022/10/12 03:33:11;;;;;;;6.00;3.60;;;8.60;99.90;;;;;;5032526;28;20212;-77
2022/10/12 03:35:37;;;;;;;7.43;3.65;;;8.60;99.90;;;;;;5031645;28;20170;-77
2022/10/12 03:38:03;;;;;;;11.65;3.33;;;8.50;99.90;;;;;;5023586;28;20200;-77
2022/10/12 03:40:29;;;;;;;7.22;3.35;;;8.50;99.90;;;;;;5030406;28;20166;-77
2022/10/12 03:42:55;;;;;;;6.17;3.40;;;8.50;99.90;;;;;;5031387;28;20215;-77
2022/10/12 03:45:21;;;;;;;6.03;2.87;;;8.50;99.90;;;;;;4996840;28;20604;-77
2022/10/12 03:47:46;;;;;;;4.63;2.90;;;8.50;99.90;;;;;;5031283;28;21107;-77
2022/10/12 03:50:13;;;;;;;5.20;2.90;;;8.60;99.90;;;;;;5025700;28;20177;-77
2022/10/12 03:52:38;;;;;;;5.05;3.13;;;8.60;99.90;;;;;;5032733;28;20174;-77
2022/10/12 03:55:05;;;;;;;9.57;3.10;;;8.60;99.90;;;;;;5033648;28;20189;-77
2022/10/12 03:57:30;;;;;;;4.03;2.60;;;8.60;99.90;;;;;;5035267;28;20728;-77
2022/10/12 03:59:56;;;;;;;3.40;2.43;;;8.60;99.90;;;;;;5035247;28;20257;-77
2022/10/12 04:02:22;;;;;;;4.13;2.80;;;8.60;99.90;;;;;;5035099;28;20166;-77
2022/10/12 04:04:48;;;;;;;4.13;2.63;;;8.50;99.90;;;;;;5034639;28;20205;-77
2022/10/12 04:07:13;;;;;;;5.63;3.53;;;8.50;99.90;;;;;;5028441;28;20579;-77
2022/10/12 04:09:39;;;;;;;5.70;2.93;;;8.50;99.90;;;;;;5035013;28;20212;-77
2022/10/12 04:12:05;;;;;;;6.73;3.07;;;8.50;99.90;;;;;;5027079;28;20166;-77
2022/10/12 04:14:31;;;;;;;5.00;2.70;;;8.50;99.90;;;;;;5034787;28;20200;-78
2022/10/12 04:16:57;;;;;;;6.03;3.03;;;8.50;99.90;;;;;;5034777;28;21473;-78
2022/10/12 04:19:22;;;;;;;5.80;3.00;;;8.50;99.90;;;;;;5034923;28;20903;-77
2022/10/12 04:21:48;;;;;;;7.03;2.87;;;8.50;99.90;;;;;;5039968;28;20216;-77
2022/10/12 04:24:14;;;;;;;4.50;3.27;;;8.40;99.90;;;;;;5034516;28;20296;-77
2022/10/12 04:26:40;;;;;;;5.80;2.90;;;8.40;99.90;;;;;;5035248;28;20166;-77
2022/10/12 04:29:05;;;;;;;11.90;3.37;;;8.40;99.90;;;;;;5043675;28;20636;-77
2022/10/12 04:31:31;;;;;;;6.90;3.10;;;8.30;99.90;;;;;;5034819;28;21120;-77
2022/10/12 04:33:57;;;;;;;5.97;2.77;;;8.30;99.90;;;;;;5034876;28;20194;-77
2022/10/12 04:36:23;;;;;;;5.73;2.40;;;8.30;99.90;;;;;;5034616;28;20176;-78
2022/10/12 04:38:49;;;;;;;5.55;3.10;;;8.30;99.90;;;;;;5035505;28;20560;-78
2022/10/12 04:41:15;;;;;;;3.73;3.20;;;8.30;99.90;;;;;;5029193;28;20169;-77
2022/10/12 04:43:41;;;;;;;4.77;2.70;;;8.30;99.90;;;;;;5037310;28;20272;-78
2022/10/12 04:46:07;;;;;;;7.60;3.77;;;8.30;99.90;;;;;;5036056;28;20980;-77
2022/10/12 04:48:32;;;;;;;9.20;3.43;;;8.30;99.90;;;;;;5047758;28;20201;-76
2022/10/12 04:50:58;;;;;;;6.70;2.50;;;8.30;99.90;;;;;;5044336;28;20530;-77
2022/10/12 04:53:24;;;;;;;4.53;4.10;;;8.30;99.90;;;;;;5030052;28;20174;-77
2022/10/12 04:55:50;;;;;;;6.27;2.40;;;8.30;99.90;;;;;;5034245;28;20174;-77
2022/10/12 04:58:16;;;;;;;5.63;2.60;;;8.30;99.90;;;;;;5036075;28;20693;-78
2022/10/12 05:00:41;;;;;;;6.27;2.97;;;8.30;99.90;;;;;;5037349;28;20564;-79
2022/10/12 05:03:07;;;;;;;6.63;2.90;;;8.40;99.90;;;;;;5038543;28;20564;-77
2022/10/12 05:05:34;;;;;;;5.53;2.50;;;8.40;99.90;;;;;;5036426;28;20201;-77
2022/10/12 05:08:01;;;;;;;5.95;4.30;;;8.40;99.90;;;;;;5037171;28;20181;-78
2022/10/12 05:10:27;;;;;;;6.60;3.00;;;8.40;99.90;;;;;;5038112;28;20170;-77
2022/10/12 05:12:53;;;;;;;8.27;2.87;;;8.50;99.90;;;;;;5035026;28;20177;-77
2022/10/12 05:15:19;;;;;;;7.27;3.33;;;8.50;99.90;;;;;;5036561;28;20189;-77
2022/10/12 05:17:44;;;;;;;11.17;4.00;;;8.50;99.90;;;;;;5056751;28;20188;-77
2022/10/12 05:20:10;;;;;;;8.23;3.33;;;8.50;99.90;;;;;;5034571;28;20165;-78
2022/10/12 05:22:36;;;;;;;6.57;3.30;;;8.50;99.90;;;;;;5033746;28;21101;-78
2022/10/12 05:25:02;;;;;;;5.13;2.63;;;8.50;99.90;;;;;;5033440;28;20201;-77
2022/10/12 05:27:28;;;;;;;5.13;2.80;;;8.50;99.90;;;;;;5034223;28;20169;-78
2022/10/12 05:29:54;;;;;;;10.23;3.37;;;8.50;99.90;;;;;;5033756;28;20166;-78
2022/10/12 05:32:19;;;;;;;5.60;3.70;;;8.50;99.90;;;;;;5033341;28;20629;-78
2022/10/12 05:34:45;;;;;;;4.50;2.50;;;8.50;99.90;;;;;;5031139;28;20189;-78
2022/10/12 05:37:13;;;;;;;6.63;2.50;;;8.60;99.90;;;;;;5033288;28;20604;-78
2022/10/12 05:39:39;;;;;;;7.53;2.83;;;8.60;99.90;;;;;;5033408;28;20170;-78
2022/10/12 05:42:05;;;;;;;12.03;3.17;;;8.60;99.90;;;;;;5033443;28;20166;-78
2022/10/12 05:44:31;;;;;;;5.37;2.90;;;8.60;99.90;;;;;;5045876;28;20201;-78
2022/10/12 05:46:56;;;;;;;5.10;2.80;;;8.60;99.90;;;;;;5033551;28;20572;-78
2022/10/12 05:49:22;;;;;;;5.03;2.50;;;8.60;99.90;;;;;;5027913;28;20568;-78
2022/10/12 05:51:48;;;;;;;3.90;2.83;;;8.60;99.90;;;;;;5033478;28;20664;-77
2022/10/12 05:54:14;;;;;;;6.20;3.60;;;8.60;99.90;;;;;;5033016;28;20197;-78
2022/10/12 05:56:41;;;;;;;4.10;2.40;;;8.60;99.90;;;;;;5047137;28;20572;-78
2022/10/12 05:59:07;;;;;;;9.63;3.17;;;8.60;99.90;;;;;;5031490;28;20197;-79
2022/10/12 06:01:33;;;;;;;4.40;2.30;;;8.60;99.90;;;;;;5028875;28;20204;-79
2022/10/12 06:03:59;;;;;;;5.03;2.90;;;8.60;99.90;;;;;;5037195;28;20201;-78
2022/10/12 06:06:24;;;;;;;4.77;3.53;;;8.60;99.90;;;;;;5032171;28;21134;-79
2022/10/12 06:08:50;;;;;;;5.40;3.27;;;8.60;99.90;;;;;;5031812;28;20162;-78
2022/10/12 06:11:16;;;;;;;5.50;2.37;;;8.60;99.90;;;;;;5031668;28;20244;-77
2022/10/12 06:13:43;;;;;;;5.30;3.10;;;8.60;99.90;;;;;;5031593;28;20608;-78
2022/10/12 06:16:08;;;;;;;6.43;3.58;;;8.60;99.90;;;;;;5032710;28;20173;-79
2022/10/12 06:18:34;;;;;;;4.10;2.27;;;8.60;99.90;;;;;;5032373;28;20197;-78
2022/10/12 06:21:00;;;;;;;4.20;2.70;;;8.60;99.90;;;;;;5031739;28;20537;-78
2022/10/12 06:23:26;;;;;;;7.28;2.55;;;8.60;99.90;;;;;;5032561;28;20162;-78
2022/10/12 06:25:52;;;;;;;5.20;2.77;;;8.70;99.90;;;;;;5041297;28;20170;-78
2022/10/12 06:28:19;;;;;;;4.20;2.10;;;8.60;99.90;;;;;;5048335;28;20599;-78
2022/10/12 06:30:46;;;;;;;6.63;3.10;;;8.70;99.90;;;;;;5048710;28;20174;-78
2022/10/12 06:33:11;;;;;;;5.43;3.83;;;8.60;99.90;;;;;;5018119;28;20165;-78
2022/10/12 06:35:37;;;;;;;9.90;4.10;;;8.60;99.90;;;;;;5034316;28;20318;-78
2022/10/12 06:38:03;;;;;;;10.83;4.20;;;8.60;99.90;;;;;;5052111;28;20704;-78
2022/10/12 06:40:29;;;;;;;4.13;2.70;;;8.60;99.90;;;;;;5052548;28;20165;-78
2022/10/12 06:42:54;;;;;;;7.57;3.53;;;8.70;99.90;;;;;;5055818;28;20161;-78
2022/10/12 06:45:20;;;;;;;5.40;2.97;;;8.70;99.90;;;;;;5051769;28;20665;-78
2022/10/12 06:47:46;;;;;;;6.20;2.93;;;8.70;99.90;;;;;;5021617;28;20604;-78
2022/10/12 06:50:12;;;;;;;5.77;2.33;;;8.70;99.90;;;;;;5028311;28;20177;-78
2022/10/12 06:52:38;;;;;;;3.87;2.30;;;8.80;99.90;;;;;;5033678;28;20601;-77
2022/10/12 06:55:04;;;;;;;7.00;4.03;;;8.80;99.90;;;;;;5051578;28;20614;-77
2022/10/12 06:57:30;;;;;;;7.18;3.70;;;8.80;99.90;;;;;;5033833;28;20212;-77
2022/10/12 06:59:56;;;;;;;5.43;2.90;;;8.90;99.90;;;;;;5051751;28;20161;-77
2022/10/12 07:02:22;;;;;;;5.97;2.90;;;8.90;99.90;;;;;;5051652;28;20629;-76
2022/10/12 07:04:51;;;;;;;5.80;2.83;;;8.90;99.90;;;;;;5033450;28;20291;-76
2022/10/12 07:07:21;;;;;;;5.60;3.38;;;8.90;99.90;;;;;;5051653;28;20165;-76
2022/10/12 07:09:47;;;;;;;13.93;3.83;;;9.00;99.90;;;;;;5051606;28;20212;-76
2022/10/12 07:12:12;;;;;;;8.60;3.40;;;9.00;99.90;;;;;;5033635;28;20665;-76
2022/10/12 07:14:38;;;;;;;4.47;2.80;;;9.10;99.90;;;;;;5033404;28;20284;-77
2022/10/12 07:17:05;;;;;;;4.10;3.10;;;9.20;99.90;;;;;;5033741;28;20280;-76
2022/10/12 07:19:30;;;;;;;4.80;3.20;;;9.20;99.90;;;;;;5063213;22;20292;-74
2022/10/12 07:21:56;;;;;;;6.37;3.23;;;9.30;99.90;;;;;;5043221;28;20173;-74
2022/10/12 07:24:22;;;;;;;6.00;3.07;;;9.40;99.90;;;;;;5046764;28;20180;-73
2022/10/12 07:26:49;;;;;;;4.63;3.27;;;9.50;99.90;;;;;;5040895;28;20713;-74
2022/10/12 07:29:15;;;;;;;4.40;2.78;;;9.50;99.90;;;;;;5039181;28;20181;-74
2022/10/12 07:31:41;;;;;;;6.63;3.20;;;9.60;99.90;;;;;;5036839;28;20645;-74
2022/10/12 07:34:07;;;;;;;9.52;3.30;;;9.60;99.90;;;;;;5044217;28;20180;-74
2022/10/12 07:36:33;;;;;;;8.70;3.45;;;9.70;99.90;;;;;;5034627;28;20557;-74
2022/10/12 07:38:59;;;;;;;4.20;3.00;;;9.80;99.90;;;;;;5040231;28;20191;-73
2022/10/12 07:41:26;;;;;;;6.70;3.50;;;9.90;99.90;;;;;;5039138;28;20162;-74
2022/10/12 07:43:55;;;;;;;6.60;3.20;;;10.00;99.90;;;;;;5050499;28;20177;-74
2022/10/12 07:46:24;;;;;;;6.25;3.33;;;10.10;99.90;;;;;;5034856;28;20235;-74
2022/10/12 07:48:49;;;;;;;4.95;3.17;;;10.30;99.90;;;;;;5031145;28;20232;-74
2022/10/12 07:51:15;;;;;;;7.10;2.90;;;10.40;99.90;;;;;;5037363;28;20660;-74
2022/10/12 07:53:41;;;;;;;10.63;3.23;;;10.50;99.90;;;;;;5023829;28;20174;-74
2022/10/12 07:56:14;;;;;;;5.50;2.80;;;10.70;99.90;;;;;;5031323;28;20576;-73
2022/10/12 07:58:54;;;;;;;6.70;2.97;;;10.80;99.90;;;;;;5029767;28;20698;-74
2022/10/12 08:01:22;;;;;;;8.95;3.40;;;11.30;99.90;;;;;;5031214;28;20522;-74
2022/10/12 08:03:49;;;;;;;5.93;3.17;;;11.80;99.90;;;;;;5031045;28;20227;-75
2022/10/12 08:06:17;;;;;;;5.77;2.57;;;12.60;99.90;;;;;;5031252;28;20256;-74
2022/10/12 08:08:43;;;;;;;4.50;3.30;;;13.50;99.90;;;;;;5031040;28;20696;-74
2022/10/12 08:11:10;;;;;;;5.43;2.60;;;14.40;99.90;;;;;;5029847;28;20567;-75
2022/10/12 08:13:37;;;;;;;7.40;2.80;;;15.10;99.90;;;;;;5030966;28;20664;-74
2022/10/12 08:16:05;;;;;;;6.83;2.90;;;16.00;99.90;;;;;;5030859;28;21034;-74
2022/10/12 08:18:31;;;;;;;4.20;2.40;;;16.90;99.90;;;;;;5029317;28;20633;-74
2022/10/12 08:20:57;;;;;;;7.80;2.30;;;17.70;99.90;;;;;;5029811;28;20580;-75
2022/10/12 08:23:23;;;;;;;3.40;1.93;;;18.70;99.90;;;;;;5030737;28;20174;-75
2022/10/12 08:25:53;;;;;;;3.20;2.00;;;19.40;99.90;;;;;;5030959;28;20561;-75
2022/10/12 08:28:20;;;;;;;5.17;2.97;;;20.00;99.90;;;;;;5030873;28;20654;-75
2022/10/12 08:30:46;;;;;;;5.20;2.23;;;20.40;99.90;;;;;;5030974;28;20672;-75
2022/10/12 08:33:12;;;;;;;4.50;2.33;;;20.90;99.90;;;;;;5030805;28;20656;-75
2022/10/12 08:35:41;;;;;;;5.73;2.30;;;21.20;99.90;;;;;;5029357;28;20576;-74
2022/10/12 08:38:09;;;;;;;4.33;2.10;;;21.50;99.90;;;;;;5030356;28;20643;-75
2022/10/12 08:40:46;;;;;;;5.33;2.20;;;21.90;99.90;;;;;;5022977;28;20588;-75
2022/10/12 08:43:30;;;;;;;4.30;2.23;;;21.60;96.50;;;;;;5039654;28;20575;-74
2022/10/12 08:45:59;;;;;;;4.23;2.40;;;21.50;97.00;;;;;;5038510;28;20571;-75
2022/10/12 08:48:55;;;;;;;4.80;2.73;;;21.60;97.60;;;;;;5054062;28;20603;-75
2022/10/12 08:51:25;;;;;;;3.90;2.10;;;21.30;94.60;;;;;;5046587;28;20580;-75
2022/10/12 08:54:05;;;;;;;6.43;2.30;;;20.70;95.00;;;;;;5032131;28;20600;-74
2022/10/12 08:56:33;;;;;;;6.13;2.40;;;20.30;93.20;;;;;;5034093;28;20608;-75
2022/10/12 08:59:01;;;;;;;4.90;2.17;;;19.90;94.60;;;;;;5033009;28;20710;-74
2022/10/12 09:01:38;;;;;;;5.73;2.57;;;19.60;95.10;;;;;;5033832;28;21206;-74
2022/10/12 09:04:22;;;;;;;3.53;1.93;;;19.60;95.70;;;;;;5031111;28;20584;-74
2022/10/12 09:07:12;;;;;;;5.00;2.40;;;19.50;95.20;;;;;;5032487;28;20619;-75
2022/10/12 09:09:56;;;;;;;5.43;3.47;;;19.50;95.00;;;;;;5032408;28;21198;-75
2022/10/12 09:12:39;;;;;;;7.67;3.57;;;19.40;94.40;;;;;;5031539;28;20711;-74
2022/10/12 09:15:16;;;;;;;6.43;2.60;;;19.10;93.50;;;;;;5013878;28;20580;-74
2022/10/12 09:17:52;;;;;;;4.03;2.80;;;18.90;93.70;;;;;;5014371;28;20735;-74
2022/10/12 09:20:39;;;;;;;5.47;2.77;;;18.60;94.00;;;;;;5014087;28;20565;-74
2022/10/12 09:23:30;;;;;;;5.77;2.40;;;18.40;92.70;;;;;;5013654;28;20569;-75
2022/10/12 09:26:10;;;;;;;6.90;2.90;;;18.10;93.00;;;;;;5013894;28;20550;-74
2022/10/12 09:28:57;;;;;;;6.63;2.73;;;18.10;93.40;;;;;;5012912;28;20592;-74
2022/10/12 09:32:07;;;;;;;4.00;2.40;;;18.10;95.20;;;;;;5012329;28;20595;-74
2022/10/12 09:34:33;;;;;;;11.43;2.50;;;18.40;96.20;;;;;;5013382;28;20664;-74
2022/10/12 09:37:02;;;;;;;7.90;2.90;;;18.50;95.70;;;;;;5013688;28;21111;-75
2022/10/12 09:39:36;;;;;;;5.87;3.40;;;18.60;96.20;;;;;;5015864;28;20194;-74
2022/10/12 09:42:02;;;;;;;5.97;2.43;;;18.90;96.30;;;;;;5032897;28;20630;-75
2022/10/12 09:44:39;;;;;;;5.73;2.63;;;19.20;96.30;;;;;;5041503;28;20617;-77
2022/10/12 09:47:23;;;;;;;3.33;2.30;;;19.60;96.90;;;;;;5053025;28;20567;-74
2022/10/12 09:49:57;;;;;;;4.13;2.70;;;19.90;95.80;;;;;;5052906;28;20602;-74
2022/10/12 09:52:34;;;;;;;5.87;3.00;;;20.10;96.10;;;;;;5032666;28;20599;-74
2022/10/12 09:55:00;;;;;;;4.70;2.67;;;20.30;95.70;;;;;;5018676;28;21147;-74
2022/10/12 09:57:32;;;;;;;5.57;3.10;;;20.60;96.20;;;;;;5035426;28;20670;-74
2022/10/12 10:00:01;;;;;;;6.27;2.60;;;21.10;96.00;;;;;;5025317;28;20612;-74
2022/10/12 10:02:27;;;;;;;5.10;2.67;;;21.70;96.70;;;;;;5032550;28;20556;-74
2022/10/12 10:04:54;;;;;;;3.80;2.30;;;21.80;95.00;;;;;;5031336;28;21131;-74
2022/10/12 10:07:34;;;;;;;5.00;2.67;;;21.80;94.40;;;;;;5032765;28;20564;-74
2022/10/12 10:10:14;;;;;;;3.30;2.50;;;21.90;93.20;;;;;;5031365;28;21167;-75
2022/10/12 10:12:43;;;;;;;4.80;2.20;;;21.80;92.80;;;;;;5032659;28;20575;-77
2022/10/12 10:15:32;;;;;;;5.40;2.90;;;21.80;92.60;;;;;;5029928;28;20576;-74
2022/10/12 10:18:00;;;;;;;9.30;2.90;;;21.80;92.60;;;;;;5027950;28;20628;-74
2022/10/12 10:20:50;;;;;;;5.47;2.80;;;22.00;92.60;;;;;;5030220;28;20635;-74
2022/10/12 10:23:26;;;;;;;6.43;2.70;;;22.10;92.70;;;;;;5025550;28;20584;-74
2022/10/12 10:25:56;;;;;;;5.33;2.90;;;22.10;92.20;;;;;;5032121;28;20619;-74
2022/10/12 10:28:29;;;;;;;5.77;3.10;;;22.20;92.10;;;;;;5031683;28;20607;-74
2022/10/12 10:31:06;;;;;;;4.80;2.37;;;22.20;91.50;;;;;;5022828;28;20877;-74
2022/10/12 10:33:34;;;;;;;5.73;2.43;;;22.40;91.30;;;;;;5029012;28;20658;-74
2022/10/12 10:36:04;;;;;;;3.90;2.33;;;22.50;91.50;;;;;;5031893;28;21135;-74
2022/10/12 10:38:49;;;;;;;5.10;2.80;;;22.50;91.30;;;;;;5031695;28;21207;-74
2022/10/12 10:41:17;;;;;;;4.37;2.17;;;22.60;91.20;;;;;;5031395;28;20592;-74
2022/10/12 10:43:47;;;;;;;3.50;2.77;;;22.40;90.50;;;;;;5012869;28;20941;-75
2022/10/12 10:46:15;;;;;;;4.43;2.77;;;22.20;90.20;;;;;;5041589;28;21130;-74
2022/10/12 10:48:55;;;;;;;5.97;2.83;;;22.30;91.00;;;;;;5031928;28;20584;-75
2022/10/12 10:51:21;;;;;;;4.00;2.37;;;22.50;90.80;;;;;;5028646;28;20687;-74
2022/10/12 10:53:49;;;;;;;6.27;2.17;;;22.60;91.00;;;;;;5030147;28;20941;-74
2022/10/12 10:56:28;;;;;;;8.33;3.60;;;22.80;91.00;;;;;;5031447;28;20630;-74
2022/10/12 10:58:58;;;;;;;3.63;3.00;;;22.90;90.30;;;;;;5002959;28;20679;-74
2022/10/12 11:01:37;;;;;;;5.80;3.43;;;23.00;90.30;;;;;;5027536;28;20655;-74
2022/10/12 11:04:15;;;;;;;5.33;3.33;;;23.10;89.30;;;;;;5029895;28;20915;-74
2022/10/12 11:06:49;;;;;;;6.00;2.90;;;23.00;87.70;;;;;;5029261;28;20582;-74
2022/10/12 11:09:36;;;;;;;6.83;3.17;;;23.00;87.50;;;;;;5030043;28;20651;-74
2022/10/12 11:12:08;;;;;;;5.77;2.83;;;22.90;87.80;;;;;;5011506;28;20660;-74
2022/10/12 11:14:40;;;;;;;4.63;2.30;;;22.90;87.70;;;;;;5010430;28;20550;-78
2022/10/12 11:17:15;;;;;;;4.20;2.90;;;23.00;88.70;;;;;;5016506;28;20619;-72
2022/10/12 11:19:56;;;;;;;3.67;2.63;;;22.90;87.10;;;;;;5030298;28;20984;-72
2022/10/12 11:22:39;;;;;;;6.57;3.17;;;22.80;86.00;;;;;;5038983;28;20638;-72
2022/10/12 11:25:19;;;;;;;4.53;2.63;;;22.70;86.50;;;;;;5024818;28;21126;-74
2022/10/12 11:27:45;;;;;;;6.70;3.00;;;22.80;86.20;;;;;;5030735;28;20585;-74
2022/10/12 11:30:25;;;;;;;6.20;3.50;;;22.80;86.80;;;;;;5029672;28;20576;-75
2022/10/12 11:33:02;;;;;;;5.33;3.33;;;22.80;85.50;;;;;;5029605;28;20201;-74
2022/10/12 11:35:33;;;;;;;5.83;3.10;;;22.60;84.90;;;;;;5029623;28;20564;-74
2022/10/12 11:38:23;;;;;;;8.77;3.13;;;22.30;83.20;;;;;;5030677;28;21199;-74
2022/10/12 11:40:48;;;;;;;6.70;2.97;;;22.00;82.80;;;;;;5031196;28;20614;-74
2022/10/12 11:43:20;;;;;;;4.43;2.47;;;21.90;83.50;;;;;;5020544;28;20634;-74
2022/10/12 11:45:49;;;;;;;4.23;2.33;;;21.80;83.30;;;;;;5031591;28;20166;-74
2022/10/12 11:48:32;;;;;;;6.60;4.10;;;21.60;82.50;;;;;;5031207;28;20630;-75
2022/10/12 11:50:58;;;;;;;4.67;2.50;;;21.40;81.60;;;;;;5043787;28;20567;-74
2022/10/12 11:53:30;;;;;;;5.60;3.13;;;21.20;82.40;;;;;;5031376;28;20572;-74
2022/10/12 11:55:58;;;;;;;7.10;3.00;;;21.00;82.30;;;;;;5030189;28;20952;-74
2022/10/12 11:58:29;;;;;;;5.70;3.70;;;20.80;82.50;;;;;;5031129;28;20632;-74
2022/10/12 12:01:04;;;;;;;6.00;4.23;;;20.60;82.60;;;;;;5019432;28;21020;-74
2022/10/12 12:04:11;;;;;;;9.80;3.87;;;20.30;82.80;;;;;;5027528;28;21027;-73
2022/10/12 12:06:52;;;;;;;6.87;2.67;;;20.10;83.20;;;;;;5032715;28;21123;-73
2022/10/12 12:09:30;;;;;;;3.50;2.23;;;20.00;83.90;;;;;;5032814;28;20607;-73
2022/10/12 12:12:07;;;;;;;4.73;2.73;;;19.90;84.20;;;;;;5043807;28;20573;-73
2022/10/12 12:14:33;;;;;;;9.73;2.40;;;19.90;85.10;;;;;;5018503;28;20621;-74
2022/10/12 12:17:19;;;;;;;5.70;2.80;;;20.00;86.60;;;;;;5031050;28;20660;-74
2022/10/12 12:19:48;;;;;;;6.23;2.97;;;20.10;87.50;;;;;;5028738;28;20518;-74
2022/10/12 12:22:27;;;;;;;5.03;3.20;;;20.30;87.90;;;;;;5028281;28;20573;-73
2022/10/12 12:24:55;;;;;;;6.10;3.00;;;20.30;87.30;;;;;;5034092;28;20595;-73
2022/10/12 12:27:30;;;;;;;8.20;2.70;;;20.30;87.20;;;;;;5034343;28;20568;-73
2022/10/12 12:29:57;;;;;;;4.23;3.10;;;20.30;86.90;;;;;;5029897;28;21252;-73
2022/10/12 12:32:25;;;;;;;2.90;2.33;;;20.40;86.80;;;;;;5034229;28;20951;-73
2022/10/12 12:34:57;;;;;;;5.00;2.80;;;20.30;86.70;;;;;;4997096;28;21231;-75
2022/10/12 12:37:27;;;;;;;5.33;2.50;;;20.20;86.30;;;;;;5030387;28;20624;-74
2022/10/12 12:39:56;;;;;;;4.73;2.37;;;20.10;86.50;;;;;;5034306;28;20934;-72
2022/10/12 12:42:31;;;;;;;5.37;3.07;;;20.10;86.70;;;;;;5032928;28;20567;-73
2022/10/12 12:45:16;;;;;;;7.93;2.60;;;20.00;86.70;;;;;;5032556;28;21127;-74
2022/10/12 12:47:42;;;;;;;7.73;3.60;;;19.90;86.90;;;;;;5034134;28;20586;-74
2022/10/12 12:50:37;;;;;;;6.50;3.20;;;19.90;87.10;;;;;;5030300;28;21149;-73
2022/10/12 12:53:21;;;;;;;7.93;4.23;;;19.80;87.50;;;;;;5020309;28;20650;-74
2022/10/12 12:56:30;;;;;;;7.30;3.13;;;19.80;87.70;;;;;;5034581;28;20584;-74
2022/10/12 12:59:08;;;;;;;4.00;2.53;;;19.90;88.50;;;;;;5016002;28;20651;-73
2022/10/12 13:02:06;;;;;;;5.70;3.47;;;19.90;88.90;;;;;;5019339;28;20571;-74
2022/10/12 13:04:57;;;;;;;7.27;3.50;;;19.90;88.70;;;;;;5053368;28;20564;-73
2022/10/12 13:07:43;;;;;;;9.80;3.50;;;19.90;88.70;;;;;;5053709;28;20735;-73
2022/10/12 13:10:24;;;;;;;5.23;2.60;;;19.80;88.80;;;;;;5053378;28;21269;-73
2022/10/12 13:13:05;;;;;;;6.40;2.50;;;19.80;89.30;;;;;;5035721;28;20908;-74